createdAt,value
2019-05-14T00:01:03.296Z,0.90
2019-05-14T00:03:32.174Z,0.60
2019-05-14T00:06:02.221Z,0.70
2019-05-14T00:08:31.670Z,0.70
2019-05-14T00:11:01.450Z,0.70
2019-05-14T00:13:32.102Z,0.80
2019-05-14T00:16:01.578Z,0.80
2019-05-14T00:18:31.504Z,0.90
2019-05-14T00:21:01.873Z,0.83
2019-05-14T00:23:31.875Z,0.77
2019-05-14T00:26:01.913Z,0.67
2019-05-14T00:28:31.781Z,0.80
2019-05-14T00:31:02.874Z,0.70
2019-05-14T00:33:31.814Z,0.90
2019-05-14T00:36:02.152Z,0.70
2019-05-14T00:38:31.636Z,0.73
2019-05-14T00:41:01.953Z,0.70
2019-05-14T00:43:32.355Z,0.90
2019-05-14T00:46:01.835Z,0.87
2019-05-14T00:48:31.789Z,0.67
2019-05-14T00:51:02.222Z,0.70
2019-05-14T00:53:32.144Z,0.70
2019-05-14T00:56:02.142Z,0.80
2019-05-14T00:58:31.508Z,0.70
2019-05-14T01:01:01.560Z,0.70
2019-05-14T01:03:32.392Z,0.70
2019-05-14T01:06:02.991Z,0.83
2019-05-14T01:08:32.205Z,0.80
2019-05-14T01:11:01.754Z,1.00
2019-05-14T01:13:31.393Z,0.80
2019-05-14T01:16:01.646Z,0.70
2019-05-14T01:18:32.273Z,0.70
2019-05-14T01:21:01.869Z,0.70
2019-05-14T01:23:32.326Z,0.93
2019-05-14T01:26:02.247Z,0.63
2019-05-14T01:28:32.262Z,0.70
2019-05-14T01:31:01.486Z,0.87
2019-05-14T01:33:31.825Z,0.80
2019-05-14T01:36:02.057Z,1.03
2019-05-14T01:38:31.654Z,0.77
2019-05-14T01:41:01.834Z,0.77
2019-05-14T01:43:31.615Z,0.90
2019-05-14T01:46:01.951Z,0.90
2019-05-14T01:48:31.421Z,0.80
2019-05-14T01:51:01.534Z,0.70
2019-05-14T01:53:31.293Z,0.90
2019-05-14T01:56:01.710Z,1.00
2019-05-14T01:58:31.289Z,0.80
2019-05-14T02:01:01.933Z,0.87
2019-05-14T02:03:32.298Z,0.80
2019-05-14T02:06:01.752Z,0.80
2019-05-14T02:08:32.238Z,0.80
2019-05-14T02:11:01.870Z,0.90
2019-05-14T02:13:32.219Z,0.90
2019-05-14T02:16:02.052Z,0.90
2019-05-14T02:18:31.629Z,0.90
2019-05-14T02:21:01.526Z,1.00
2019-05-14T02:23:32.061Z,0.90
2019-05-14T02:26:02.602Z,0.90
2019-05-14T02:28:31.776Z,0.87
2019-05-14T02:31:03.366Z,0.80
2019-05-14T02:33:31.638Z,0.90
2019-05-14T02:36:00.704Z,1.03
2019-05-14T02:38:30.178Z,0.90
2019-05-14T02:41:00.154Z,0.90
2019-05-14T02:43:30.177Z,0.90
2019-05-14T02:46:10.814Z,0.77
2019-05-14T02:48:30.028Z,0.90
2019-05-14T02:51:00.024Z,1.00
2019-05-14T02:53:29.880Z,1.00
2019-05-14T02:55:59.647Z,0.80
2019-05-14T02:58:29.962Z,0.90
2019-05-14T03:01:00.409Z,0.90
2019-05-14T03:03:30.181Z,0.90
2019-05-14T03:06:00.496Z,0.90
2019-05-14T03:08:30.556Z,1.00
2019-05-14T03:11:00.429Z,1.00
2019-05-14T03:13:30.016Z,0.90
2019-05-14T03:15:59.759Z,1.00
2019-05-14T03:18:29.708Z,0.90
2019-05-14T03:21:00.892Z,1.10
2019-05-14T03:23:30.447Z,0.90
2019-05-14T03:26:00.458Z,1.00
2019-05-14T03:28:30.627Z,0.87
2019-05-14T03:31:02.994Z,0.93
2019-05-14T03:33:33.471Z,1.00
2019-05-14T03:36:09.171Z,0.93
2019-05-14T03:38:32.229Z,1.00
2019-05-14T03:41:01.293Z,1.00
2019-05-14T03:43:30.359Z,1.20
2019-05-14T03:45:59.658Z,1.20
2019-05-14T03:48:29.780Z,1.00
2019-05-14T03:51:00.143Z,0.93
2019-05-14T03:53:30.081Z,1.00
2019-05-14T03:56:00.211Z,0.80
2019-05-14T03:58:30.324Z,1.03
2019-05-14T04:01:03.755Z,0.90
2019-05-14T04:03:33.039Z,0.97
2019-05-14T04:06:03.011Z,0.90
2019-05-14T04:08:33.565Z,1.00
2019-05-14T04:11:02.852Z,1.03
2019-05-14T04:13:33.767Z,0.97
2019-05-14T04:16:03.797Z,0.90
2019-05-14T04:18:35.842Z,1.10
2019-05-14T04:21:05.602Z,0.80
2019-05-14T04:23:39.701Z,1.37
2019-05-14T04:26:09.534Z,1.00
2019-05-14T04:28:41.126Z,0.90
2019-05-14T04:31:11.977Z,0.90
2019-05-14T04:33:45.213Z,1.10
2019-05-14T04:36:14.566Z,0.80
2019-05-14T04:38:43.645Z,0.90
2019-05-14T04:41:12.723Z,1.13
2019-05-14T04:43:42.048Z,1.00
2019-05-14T04:46:11.131Z,0.80
2019-05-14T04:48:43.591Z,0.93
2019-05-14T04:51:10.884Z,0.77
2019-05-14T04:53:39.938Z,0.90
2019-05-14T04:56:10.033Z,0.90
2019-05-14T04:58:40.925Z,0.80
2019-05-14T05:01:10.339Z,0.90
2019-05-14T05:03:40.275Z,1.07
2019-05-14T05:06:10.126Z,1.10
2019-05-14T05:08:39.835Z,1.63
2019-05-14T05:11:09.667Z,1.70
2019-05-14T05:13:39.842Z,1.20
2019-05-14T05:16:10.069Z,1.27
2019-05-14T05:18:40.177Z,1.17
2019-05-14T05:21:09.433Z,1.10
2019-05-14T05:23:38.909Z,1.40
2019-05-14T05:26:09.189Z,1.90
2019-05-14T05:28:39.226Z,1.70
2019-05-14T05:31:09.309Z,1.40
2019-05-14T05:33:38.706Z,1.67
2019-05-14T05:36:09.500Z,1.50
2019-05-14T05:38:39.351Z,1.57
2019-05-14T05:41:09.167Z,1.30
2019-05-14T05:43:39.343Z,1.60
2019-05-14T05:46:08.876Z,1.70
2019-05-14T05:48:38.963Z,1.50
2019-05-14T05:51:09.131Z,1.20
2019-05-14T05:53:39.328Z,1.60
2019-05-14T05:56:09.142Z,1.43
2019-05-14T05:58:39.737Z,1.30
2019-05-14T06:01:09.883Z,1.67
2019-05-14T06:03:39.468Z,1.40
2019-05-14T06:06:13.576Z,1.13
2019-05-14T06:08:39.526Z,1.30
2019-05-14T06:11:08.661Z,1.27
2019-05-14T06:13:39.168Z,1.60
2019-05-14T06:16:09.501Z,1.80
2019-05-14T06:18:39.526Z,1.80
2019-05-14T06:21:09.286Z,2.17
2019-05-14T06:23:38.883Z,2.00
2019-05-14T06:26:11.458Z,2.63
2019-05-14T06:28:40.937Z,2.00
2019-05-14T06:31:10.241Z,2.07
2019-05-14T06:33:39.772Z,2.30
2019-05-14T06:36:09.021Z,2.00
2019-05-14T06:38:38.841Z,1.83
2019-05-14T06:41:08.585Z,1.53
2019-05-14T06:43:39.269Z,1.90
2019-05-14T06:46:09.171Z,2.10
2019-05-14T06:48:39.720Z,1.40
2019-05-14T06:51:09.043Z,1.97
2019-05-14T06:53:39.316Z,1.60
2019-05-14T06:56:08.479Z,1.97
2019-05-14T06:58:38.960Z,1.93
2019-05-14T07:01:09.684Z,1.70
2019-05-14T07:03:38.934Z,1.70
2019-05-14T07:06:09.045Z,1.80
2019-05-14T07:08:39.315Z,1.50
2019-05-14T07:11:08.775Z,1.63
2019-05-14T07:13:38.580Z,1.90
2019-05-14T07:16:08.997Z,1.57
2019-05-14T07:18:52.562Z,1.60
2019-05-14T07:21:09.047Z,1.50
2019-05-14T07:23:38.607Z,1.60
2019-05-14T07:26:08.425Z,1.30
2019-05-14T07:28:41.969Z,1.40
2019-05-14T07:31:09.823Z,1.70
2019-05-14T07:33:39.173Z,1.60
2019-05-14T07:36:08.812Z,1.50
2019-05-14T07:38:39.205Z,1.47
2019-05-14T07:41:09.193Z,1.30
2019-05-14T07:43:39.320Z,1.23
2019-05-14T07:46:08.751Z,1.17
2019-05-14T07:48:39.270Z,1.13
2019-05-14T07:51:09.108Z,1.23
2019-05-14T07:53:42.216Z,1.20
2019-05-14T07:56:09.630Z,1.40
2019-05-14T07:58:38.943Z,1.60
2019-05-14T08:01:09.480Z,1.40
2019-05-14T08:03:38.784Z,1.60
2019-05-14T08:06:08.454Z,1.40
2019-05-14T08:08:38.631Z,1.50
2019-05-14T08:11:08.624Z,1.30
2019-05-14T08:13:39.048Z,1.30
2019-05-14T08:16:08.934Z,1.20
2019-05-14T08:18:39.587Z,1.40
2019-05-14T08:21:08.889Z,1.10
2019-05-14T08:23:39.136Z,1.00
2019-05-14T08:26:08.522Z,1.00
2019-05-14T08:28:38.230Z,1.00
2019-05-14T08:31:09.363Z,1.13
2019-05-14T08:33:39.726Z,1.10
2019-05-14T08:36:09.153Z,1.13
2019-05-14T08:38:38.473Z,1.20
2019-05-14T08:41:08.467Z,1.03
2019-05-14T08:43:39.712Z,1.00
2019-05-14T08:46:08.592Z,1.10
2019-05-14T08:48:38.971Z,1.00
2019-05-14T08:51:09.139Z,0.97
2019-05-14T08:53:38.843Z,1.00
2019-05-14T08:56:08.820Z,0.80
2019-05-14T08:58:38.917Z,1.03
2019-05-14T09:01:08.397Z,1.00
2019-05-14T09:03:39.304Z,1.00
2019-05-14T09:06:09.222Z,1.27
2019-05-14T09:08:39.167Z,1.00
2019-05-14T09:11:09.894Z,0.93
2019-05-14T09:13:39.381Z,1.00
2019-05-14T09:16:09.262Z,1.20
2019-05-14T09:18:38.863Z,1.20
2019-05-14T09:21:08.640Z,1.20
2019-05-14T09:23:39.201Z,1.03
2019-05-14T09:26:09.655Z,1.40
2019-05-14T09:28:39.491Z,0.83
2019-05-14T09:31:08.861Z,1.03
2019-05-14T09:33:39.028Z,1.20
2019-05-14T09:36:18.533Z,1.30
2019-05-14T09:38:42.187Z,1.50
2019-05-14T09:41:14.961Z,0.90
2019-05-14T09:43:40.778Z,1.40
2019-05-14T09:46:09.849Z,1.30
2019-05-14T09:48:38.868Z,1.20
2019-05-14T09:51:09.318Z,1.30
2019-05-14T09:53:38.565Z,1.30
2019-05-14T09:56:09.058Z,1.20
2019-05-14T09:58:38.922Z,1.40
2019-05-14T10:01:08.649Z,1.20
2019-05-14T10:03:39.049Z,1.13
2019-05-14T10:06:09.797Z,1.03
2019-05-14T10:08:39.262Z,1.00
2019-05-14T10:11:08.354Z,1.30
2019-05-14T10:13:39.353Z,1.20
2019-05-14T10:16:09.457Z,1.27
2019-05-14T10:18:38.789Z,1.00
2019-05-14T10:21:08.629Z,1.03
2019-05-14T10:23:38.999Z,1.10
2019-05-14T10:26:09.094Z,0.93
2019-05-14T10:28:41.278Z,1.10
2019-05-14T10:31:12.900Z,1.00
2019-05-14T10:33:40.089Z,1.10
2019-05-14T10:36:09.365Z,1.30
2019-05-14T10:38:38.958Z,1.17
2019-05-14T10:41:08.958Z,1.00
2019-05-14T10:43:39.185Z,0.90
2019-05-14T10:46:09.134Z,0.90
2019-05-14T10:48:39.598Z,0.97
2019-05-14T10:51:09.843Z,1.13
2019-05-14T10:53:39.209Z,1.20
2019-05-14T10:56:09.814Z,1.07
2019-05-14T10:58:39.081Z,1.10
2019-05-14T11:01:11.283Z,1.00
2019-05-14T11:03:39.036Z,1.10
2019-05-14T11:06:11.371Z,1.33
2019-05-14T11:08:38.999Z,1.20
2019-05-14T11:11:10.634Z,1.17
2019-05-14T11:13:39.500Z,1.20
2019-05-14T11:16:08.854Z,1.20
2019-05-14T11:18:39.904Z,1.00
2019-05-14T11:21:19.913Z,1.17
2019-05-14T11:23:39.521Z,1.13
2019-05-14T11:26:09.315Z,1.20
2019-05-14T11:28:39.484Z,1.23
2019-05-14T11:31:09.335Z,0.90
2019-05-14T11:33:38.978Z,1.10
2019-05-14T11:36:09.322Z,1.07
2019-05-14T11:38:38.582Z,0.80
2019-05-14T11:41:09.570Z,1.00
2019-05-14T11:43:39.666Z,0.90
2019-05-14T11:46:09.156Z,0.80
2019-05-14T11:48:39.287Z,0.90
2019-05-14T11:51:09.153Z,0.90
2019-05-14T11:53:38.697Z,0.90
2019-05-14T11:56:08.803Z,0.90
2019-05-14T11:58:38.751Z,0.90
2019-05-14T12:01:09.273Z,1.00
2019-05-14T12:03:39.447Z,0.90
2019-05-14T12:06:09.780Z,0.80
2019-05-14T12:08:41.839Z,1.00
2019-05-14T12:11:10.106Z,0.70
2019-05-14T12:13:39.662Z,0.80
2019-05-14T12:16:08.797Z,1.00
2019-05-14T12:18:41.802Z,1.07
2019-05-14T12:21:09.086Z,1.10
2019-05-14T12:23:39.336Z,1.13
2019-05-14T12:26:09.513Z,0.80
2019-05-14T12:28:38.978Z,0.97
2019-05-14T12:31:09.343Z,0.70
2019-05-14T12:33:39.707Z,0.80
2019-05-14T12:36:10.436Z,0.90
2019-05-14T12:38:39.610Z,0.70
2019-05-14T12:41:09.305Z,0.90
2019-05-14T12:43:39.751Z,1.00
2019-05-14T12:46:10.479Z,1.10
2019-05-14T12:48:39.777Z,1.20
2019-05-14T12:51:09.207Z,0.90
2019-05-14T12:53:39.408Z,1.07
2019-05-14T12:56:08.931Z,0.90
2019-05-14T12:58:45.256Z,0.73
2019-05-14T13:01:09.436Z,0.90
2019-05-14T13:03:38.574Z,0.60
2019-05-14T13:06:10.096Z,0.90
2019-05-14T13:08:38.887Z,0.90
2019-05-14T13:11:09.581Z,1.20
2019-05-14T13:13:42.643Z,1.00
2019-05-14T13:16:09.873Z,1.60
2019-05-14T13:18:39.026Z,4.43
2019-05-14T13:21:08.099Z,2.83
2019-05-14T13:23:38.416Z,1.03
2019-05-14T13:26:10.583Z,1.17
2019-05-14T13:28:39.780Z,0.90
2019-05-14T13:31:09.458Z,0.70
2019-05-14T13:33:39.241Z,1.10
2019-05-14T13:36:08.614Z,1.00
2019-05-14T13:38:39.624Z,1.30
2019-05-14T13:41:08.836Z,0.93
2019-05-14T13:43:39.216Z,0.90
2019-05-14T13:46:10.392Z,0.90
2019-05-14T13:48:43.150Z,0.80
2019-05-14T13:51:10.269Z,0.73
2019-05-14T13:53:39.326Z,0.93
2019-05-14T13:56:09.239Z,0.70
2019-05-14T13:58:38.527Z,0.70
2019-05-14T14:01:09.919Z,1.00
2019-05-14T14:03:48.102Z,0.87
2019-05-14T14:06:10.311Z,0.70
2019-05-14T14:08:42.311Z,0.70
2019-05-14T14:11:12.615Z,0.78
2019-05-14T14:13:41.680Z,0.60
2019-05-14T14:16:14.483Z,0.63
2019-05-14T14:18:41.594Z,0.90
2019-05-14T14:21:10.688Z,0.87
2019-05-14T14:23:39.739Z,0.90
2019-05-14T14:26:09.630Z,0.97
2019-05-14T14:28:39.608Z,0.70
2019-05-14T14:31:11.087Z,0.70
2019-05-14T14:33:39.696Z,0.63
2019-05-14T14:36:08.801Z,0.63
2019-05-14T14:38:40.191Z,0.97
2019-05-14T14:41:10.365Z,1.00
2019-05-14T14:43:43.320Z,1.00
2019-05-14T14:46:13.968Z,0.80
2019-05-14T14:48:41.769Z,0.80
2019-05-14T14:51:10.825Z,0.90
2019-05-14T14:53:52.287Z,0.87
2019-05-14T14:56:10.809Z,0.90
2019-05-14T14:58:39.970Z,0.80
2019-05-14T15:01:09.090Z,1.10
2019-05-14T15:03:38.185Z,0.83
2019-05-14T15:06:09.612Z,1.10
2019-05-14T15:08:38.974Z,1.10
2019-05-14T15:11:08.794Z,1.50
2019-05-14T15:13:39.130Z,0.90
2019-05-14T15:16:13.583Z,1.10
2019-05-14T15:18:39.211Z,1.00
2019-05-14T15:21:09.732Z,1.00
2019-05-14T15:23:43.122Z,1.10
2019-05-14T15:26:12.062Z,1.10
2019-05-14T15:28:40.619Z,1.00
2019-05-14T15:31:09.692Z,1.10
2019-05-14T15:33:38.787Z,0.77
2019-05-14T15:36:09.185Z,0.80
2019-05-14T15:38:39.595Z,0.80
2019-05-14T15:41:13.325Z,0.60
2019-05-14T15:43:39.783Z,0.60
2019-05-14T15:46:08.967Z,0.60
2019-05-14T15:48:39.560Z,1.40
2019-05-14T15:51:14.339Z,1.10
2019-05-14T15:53:39.702Z,1.10
2019-05-14T15:56:08.787Z,1.00
2019-05-14T15:58:38.976Z,1.20
2019-05-14T16:01:10.006Z,1.17
2019-05-14T16:03:41.544Z,1.20
2019-05-14T16:06:10.008Z,0.90
2019-05-14T16:08:40.161Z,1.20
2019-05-14T16:11:11.287Z,1.20
2019-05-14T16:13:40.309Z,0.90
2019-05-14T16:16:10.587Z,1.00
2019-05-14T16:18:39.880Z,0.80
2019-05-14T16:21:10.483Z,0.90
2019-05-14T16:23:40.127Z,0.70
2019-05-14T16:26:09.180Z,0.60
2019-05-14T16:28:39.504Z,0.60
2019-05-14T16:31:09.048Z,0.90
2019-05-14T16:33:40.466Z,1.03
2019-05-14T16:36:09.070Z,1.00
2019-05-14T16:38:39.575Z,0.97
2019-05-14T16:41:08.958Z,0.97
2019-05-14T16:43:39.992Z,1.20
2019-05-14T16:46:09.470Z,0.90
2019-05-14T16:48:39.620Z,0.90
2019-05-14T16:51:09.239Z,0.70
2019-05-14T16:53:38.359Z,0.70
2019-05-14T16:56:08.070Z,1.07
2019-05-14T16:58:38.647Z,0.70
2019-05-14T17:01:09.699Z,0.80
2019-05-14T17:03:39.681Z,1.00
2019-05-14T17:06:09.226Z,0.80
2019-05-14T17:08:39.351Z,0.80
2019-05-14T17:11:09.512Z,1.00
2019-05-14T17:13:38.608Z,1.00
2019-05-14T17:16:08.520Z,1.00
2019-05-14T17:18:37.959Z,0.93
2019-05-14T17:21:09.209Z,1.03
2019-05-14T17:23:39.312Z,1.20
2019-05-14T17:26:09.083Z,0.80
2019-05-14T17:28:40.444Z,1.10
2019-05-14T17:31:09.161Z,1.00
2019-05-14T17:33:39.510Z,0.97
2019-05-14T17:36:09.662Z,1.10
2019-05-14T17:38:39.629Z,0.80
2019-05-14T17:41:09.381Z,0.70
2019-05-14T17:43:39.674Z,0.87
2019-05-14T17:46:09.996Z,0.80
2019-05-14T17:48:39.413Z,0.90
2019-05-14T17:51:09.329Z,1.00
2019-05-14T17:53:38.843Z,0.93
2019-05-14T17:56:08.553Z,0.90
2019-05-14T17:58:38.440Z,0.80
2019-05-14T18:01:09.013Z,0.90
2019-05-14T18:03:40.028Z,1.10
2019-05-14T18:06:09.792Z,1.13
2019-05-14T18:08:38.875Z,0.70
2019-05-14T18:11:08.850Z,1.00
2019-05-14T18:13:39.027Z,0.83
2019-05-14T18:16:09.105Z,0.80
2019-05-14T18:18:38.440Z,1.20
2019-05-14T18:21:09.402Z,0.80
2019-05-14T18:23:41.755Z,1.00
2019-05-14T18:26:09.423Z,1.00
2019-05-14T18:28:38.614Z,0.70
2019-05-14T18:31:09.416Z,1.00
2019-05-14T18:33:39.851Z,0.80
2019-05-14T18:36:09.379Z,1.13
2019-05-14T18:38:38.997Z,0.90
2019-05-14T18:41:08.714Z,1.00
2019-05-14T18:43:37.905Z,0.80
2019-05-14T18:46:08.544Z,1.00
2019-05-14T18:48:37.745Z,0.80
2019-05-14T18:51:08.990Z,0.80
2019-05-14T18:53:38.459Z,0.90
2019-05-14T18:56:19.387Z,0.63
2019-05-14T18:58:38.924Z,0.63
2019-05-14T19:01:08.371Z,0.57
2019-05-14T19:03:39.567Z,0.60
2019-05-14T19:06:08.234Z,0.80
2019-05-14T19:08:39.389Z,0.70
2019-05-14T19:11:08.311Z,0.70
2019-05-14T19:13:38.959Z,0.60
2019-05-14T19:16:08.423Z,0.67
2019-05-14T19:18:38.562Z,0.70
2019-05-14T19:21:08.859Z,0.70
2019-05-14T19:23:38.610Z,0.60
2019-05-14T19:26:09.596Z,0.63
2019-05-14T19:28:39.027Z,0.57
2019-05-14T19:31:09.184Z,0.70
2019-05-14T19:33:38.402Z,0.60
2019-05-14T19:36:08.848Z,0.50
2019-05-14T19:38:38.916Z,0.60
2019-05-14T19:41:08.781Z,0.60
2019-05-14T19:43:37.960Z,0.60
2019-05-14T19:46:08.740Z,0.60
2019-05-14T19:48:37.976Z,0.63
2019-05-14T19:51:08.308Z,0.70
2019-05-14T19:53:39.247Z,0.57
2019-05-14T19:56:08.312Z,0.70
2019-05-14T19:58:38.338Z,0.80
2019-05-14T20:01:09.148Z,0.80
2019-05-14T20:03:38.346Z,0.70
2019-05-14T20:06:09.077Z,0.60
2019-05-14T20:08:38.656Z,0.70
2019-05-14T20:11:07.828Z,0.60
2019-05-14T20:13:39.185Z,0.50
2019-05-14T20:16:08.627Z,0.70
2019-05-14T20:18:38.368Z,1.00
2019-05-14T20:21:08.695Z,0.60
2019-05-14T20:23:38.663Z,0.53
2019-05-14T20:26:08.382Z,0.60
2019-05-14T20:28:39.101Z,0.70
2019-05-14T20:31:10.341Z,0.60
2019-05-14T20:33:39.080Z,0.50
2019-05-14T20:36:08.450Z,0.70
2019-05-14T20:38:38.750Z,0.60
2019-05-14T20:41:08.705Z,0.60
2019-05-14T20:43:38.637Z,0.70
2019-05-14T20:46:07.703Z,0.60
2019-05-14T20:48:39.000Z,0.80
2019-05-14T20:51:08.991Z,0.60
2019-05-14T20:53:39.641Z,0.73
2019-05-14T20:56:08.888Z,0.60
2019-05-14T20:58:38.873Z,0.60
2019-05-14T21:01:11.125Z,0.60
2019-05-14T21:03:38.965Z,0.60
2019-05-14T21:06:09.048Z,0.77
2019-05-14T21:08:38.267Z,0.70
2019-05-14T21:11:08.221Z,0.63
2019-05-14T21:13:37.503Z,0.70
2019-05-14T21:16:08.333Z,0.70
2019-05-14T21:18:41.029Z,0.80
2019-05-14T21:21:10.875Z,0.80
2019-05-14T21:23:38.940Z,0.70
2019-05-14T21:26:08.572Z,0.77
2019-05-14T21:28:39.232Z,0.63
2019-05-14T21:31:10.488Z,0.60
2019-05-14T21:33:39.296Z,0.70
2019-05-14T21:36:09.502Z,0.80
2019-05-14T21:38:41.073Z,0.80
2019-05-14T21:41:09.799Z,0.67
2019-05-14T21:43:38.900Z,0.77
2019-05-14T21:46:08.185Z,0.70
2019-05-14T21:48:38.720Z,0.60
2019-05-14T21:51:08.709Z,0.93
2019-05-14T21:53:40.833Z,0.70
2019-05-14T21:56:08.815Z,0.80
2019-05-14T21:58:38.780Z,0.93
2019-05-14T22:01:09.317Z,0.87
2019-05-14T22:03:40.229Z,0.90
2019-05-14T22:06:09.154Z,0.80
2019-05-14T22:08:39.254Z,0.80
2019-05-14T22:11:08.658Z,0.97
2019-05-14T22:13:38.233Z,0.70
2019-05-14T22:16:08.446Z,0.80
2019-05-14T22:18:38.876Z,0.87
2019-05-14T22:21:08.825Z,0.80
2019-05-14T22:23:38.920Z,0.80
2019-05-14T22:26:08.081Z,0.80
2019-05-14T22:28:37.132Z,0.80
2019-05-14T22:31:08.848Z,0.80
2019-05-14T22:33:38.228Z,0.80
2019-05-14T22:36:08.694Z,0.70
2019-05-14T22:38:38.897Z,0.80
2019-05-14T22:41:11.285Z,0.80
2019-05-14T22:43:39.002Z,0.80
2019-05-14T22:46:08.509Z,0.90
2019-05-14T22:48:37.616Z,0.70
2019-05-14T22:51:08.692Z,0.80
2019-05-14T22:53:38.930Z,0.70
2019-05-14T22:56:08.412Z,0.70
2019-05-14T22:58:38.259Z,0.70
2019-05-14T23:01:14.864Z,0.80
2019-05-14T23:03:39.634Z,0.80
2019-05-14T23:06:09.075Z,0.80
2019-05-14T23:08:39.178Z,0.80
2019-05-14T23:11:08.771Z,0.60
2019-05-14T23:13:39.151Z,0.80
2019-05-14T23:16:08.533Z,0.80
2019-05-14T23:18:38.135Z,0.80
2019-05-14T23:21:08.811Z,0.70
2019-05-14T23:23:39.285Z,0.80
2019-05-14T23:26:08.768Z,0.80
2019-05-14T23:28:44.689Z,0.80
2019-05-14T23:31:08.759Z,0.80
2019-05-14T23:33:38.790Z,0.70
2019-05-14T23:36:08.754Z,0.70
2019-05-14T23:38:39.696Z,0.70
2019-05-14T23:41:08.979Z,1.00
2019-05-14T23:43:39.070Z,0.80
2019-05-14T23:46:09.299Z,0.80
2019-05-14T23:48:39.561Z,0.80
2019-05-14T23:51:08.545Z,0.70
2019-05-14T23:53:39.263Z,0.77
2019-05-14T23:56:09.002Z,1.00
2019-05-14T23:58:38.106Z,0.70
